createdAt,value
2023-08-09T00:01:07.799Z,100468.00
2023-08-09T00:03:34.504Z,100368.13
2023-08-09T00:06:01.039Z,100461.00
2023-08-09T00:08:27.563Z,100486.88
2023-08-09T00:10:53.966Z,100478.66
2023-08-09T00:13:20.428Z,100472.34
2023-08-09T00:15:46.973Z,100392.28
2023-08-09T00:18:13.505Z,100390.72
2023-08-09T00:20:39.886Z,100377.28
2023-08-09T00:23:06.438Z,100464.13
2023-08-09T00:25:33.090Z,100455.25
2023-08-09T00:27:59.528Z,100466.44
2023-08-09T00:30:26.250Z,100456.81
2023-08-09T00:32:53.956Z,100480.00
2023-08-09T00:35:20.380Z,100431.16
2023-08-09T00:37:46.774Z,100395.56
2023-08-09T00:40:13.372Z,100481.44
2023-08-09T00:42:43.529Z,100417.88
2023-08-09T00:45:10.575Z,100520.91
2023-08-09T00:47:37.458Z,100498.25
2023-08-09T00:50:05.332Z,100485.56
2023-08-09T00:52:32.136Z,100489.59
2023-08-09T00:55:00.422Z,100403.09
2023-08-09T00:57:27.232Z,100412.53
2023-08-09T00:59:53.949Z,100473.59
2023-08-09T01:02:20.564Z,100418.94
2023-08-09T01:04:47.184Z,100432.16
2023-08-09T01:07:28.769Z,100559.63
2023-08-09T01:10:02.408Z,100478.34
2023-08-09T01:12:30.691Z,100461.09
2023-08-09T01:15:03.724Z,100579.72
2023-08-09T01:17:32.375Z,100573.00
2023-08-09T01:20:00.465Z,100493.56
2023-08-09T01:22:39.004Z,100575.16
2023-08-09T01:25:08.064Z,100522.16
2023-08-09T01:27:36.739Z,100476.19
2023-08-09T01:30:05.658Z,100580.16
2023-08-09T01:32:32.739Z,100556.44
2023-08-09T01:35:00.015Z,100548.00
2023-08-09T01:37:47.244Z,100578.63
2023-08-09T01:40:16.930Z,100562.56
2023-08-09T01:42:44.275Z,100568.56
2023-08-09T01:45:13.128Z,100576.22
2023-08-09T01:47:41.659Z,100474.06
2023-08-09T01:50:18.708Z,100571.53
2023-08-09T01:52:45.159Z,100524.03
2023-08-09T01:55:18.728Z,100536.91
2023-08-09T01:57:49.369Z,100583.41
2023-08-09T02:00:19.362Z,100494.03
2023-08-09T02:02:46.845Z,100559.63
2023-08-09T02:05:13.412Z,100565.28
2023-08-09T02:07:40.983Z,100519.03
2023-08-09T02:10:09.028Z,100588.41
2023-08-09T02:12:35.860Z,100577.84
2023-08-09T02:15:02.294Z,100625.63
2023-08-09T02:17:28.780Z,100571.97
2023-08-09T02:19:55.286Z,100581.81
2023-08-09T02:22:21.815Z,100583.25
2023-08-09T02:24:48.248Z,100594.56
2023-08-09T02:27:14.663Z,100589.69
2023-08-09T02:29:41.091Z,100589.47
2023-08-09T02:32:07.844Z,100590.38
2023-08-09T02:34:34.271Z,100576.41
2023-08-09T02:37:00.998Z,100515.72
2023-08-09T02:39:27.671Z,100551.41
2023-08-09T02:41:54.112Z,100582.81
2023-08-09T02:44:20.624Z,100515.28
2023-08-09T02:46:47.063Z,100506.84
2023-08-09T02:49:13.574Z,100585.50
2023-08-09T02:51:40.242Z,100583.78
2023-08-09T02:54:07.250Z,100625.09
2023-08-09T02:56:34.713Z,100603.53
2023-08-09T02:59:01.282Z,100610.72
2023-08-09T03:01:28.005Z,100621.53
2023-08-09T03:03:55.715Z,100543.72
2023-08-09T03:06:23.310Z,100638.44
2023-08-09T03:08:52.113Z,100628.09
2023-08-09T03:11:24.062Z,100628.72
2023-08-09T03:13:51.594Z,100638.22
2023-08-09T03:16:18.395Z,100622.72
2023-08-09T03:18:44.838Z,100566.38
2023-08-09T03:21:11.442Z,100599.63
2023-08-09T03:23:37.871Z,100615.22
2023-08-09T03:26:05.289Z,100642.53
2023-08-09T03:28:33.664Z,100628.94
2023-08-09T03:31:00.200Z,100617.81
2023-08-09T03:33:28.378Z,100648.06
2023-08-09T03:35:54.908Z,100560.94
2023-08-09T03:38:21.380Z,100568.34
2023-08-09T03:40:47.898Z,100533.50
2023-08-09T03:43:14.355Z,100561.06
2023-08-09T03:45:40.837Z,100560.06
2023-08-09T03:48:07.459Z,100576.19
2023-08-09T03:50:33.988Z,100528.53
2023-08-09T03:53:00.722Z,100635.53
2023-08-09T03:55:27.305Z,100618.50
2023-08-09T03:57:53.764Z,100553.75
2023-08-09T04:00:23.557Z,100583.06
2023-08-09T04:06:03.972Z,100684.38
2023-08-09T04:08:31.519Z,100594.47
2023-08-09T04:10:58.149Z,100648.56
2023-08-09T04:13:25.109Z,100625.94
2023-08-09T04:15:51.601Z,100565.00
2023-08-09T04:18:18.308Z,100609.84
2023-08-09T04:20:46.514Z,100642.31
2023-08-09T04:23:13.817Z,100698.25
2023-08-09T04:25:40.554Z,100609.84
2023-08-09T04:28:10.506Z,100665.66
2023-08-09T04:30:38.297Z,100637.28
2023-08-09T04:33:05.312Z,100589.28
2023-08-09T04:35:32.834Z,100655.38
2023-08-09T04:37:59.276Z,100598.00
2023-08-09T04:40:30.416Z,100581.19
2023-08-09T04:42:56.934Z,100673.72
2023-08-09T04:45:23.621Z,100621.06
2023-08-09T04:47:53.370Z,100686.00
2023-08-09T04:50:23.057Z,100566.75
2023-08-09T04:52:50.010Z,100689.41
2023-08-09T04:55:21.267Z,100636.09
2023-08-09T04:57:48.298Z,100631.94
2023-08-09T05:00:15.320Z,100669.09
2023-08-09T05:02:42.001Z,100685.34
2023-08-09T05:05:09.638Z,100658.81
2023-08-09T05:07:37.573Z,100661.53
2023-08-09T05:10:05.714Z,100677.34
2023-08-09T05:12:32.345Z,100734.72
2023-08-09T05:14:59.157Z,100678.84
2023-08-09T05:17:28.001Z,100721.91
2023-08-09T05:19:54.514Z,100657.63
2023-08-09T05:22:21.035Z,100683.19
2023-08-09T05:24:47.489Z,100640.31
2023-08-09T05:27:13.961Z,100683.88
2023-08-09T05:29:40.424Z,100666.00
2023-08-09T05:32:06.983Z,100644.56
2023-08-09T05:34:33.712Z,100686.38
2023-08-09T05:37:00.476Z,100679.00
2023-08-09T05:39:27.850Z,100688.16
2023-08-09T05:41:54.412Z,100658.72
2023-08-09T05:44:21.060Z,100758.00
2023-08-09T05:46:47.743Z,100640.34
2023-08-09T05:49:14.310Z,100703.00
2023-08-09T05:51:40.837Z,100731.22
2023-08-09T05:54:08.193Z,100750.16
2023-08-09T05:56:34.629Z,100719.56
2023-08-09T05:59:01.478Z,100707.63
2023-08-09T06:01:29.753Z,100704.19
2023-08-09T06:03:58.574Z,100740.38
2023-08-09T06:06:25.215Z,100766.19
2023-08-09T06:08:51.925Z,100753.06
2023-08-09T06:11:18.934Z,100735.06
2023-08-09T06:13:45.386Z,100773.59
2023-08-09T06:16:11.932Z,100752.41
2023-08-09T06:18:38.648Z,100736.94
2023-08-09T06:21:05.873Z,100775.69
2023-08-09T06:23:32.471Z,100703.41
2023-08-09T06:25:59.542Z,100681.22
2023-08-09T06:28:26.298Z,100770.16
2023-08-09T06:30:52.892Z,100731.53
2023-08-09T06:33:19.730Z,100725.56
2023-08-09T06:35:46.354Z,100827.44
2023-08-09T06:38:15.645Z,100689.19
2023-08-09T06:40:42.763Z,100744.72
2023-08-09T06:43:09.208Z,100805.44
2023-08-09T06:45:35.758Z,100783.91
2023-08-09T06:48:02.518Z,100705.13
2023-08-09T06:50:29.266Z,100846.16
2023-08-09T06:52:55.800Z,100709.94
2023-08-09T06:55:22.341Z,100817.81
2023-08-09T06:57:48.847Z,100817.44
2023-08-09T07:00:18.648Z,100747.88
2023-08-09T07:02:49.033Z,100814.38
2023-08-09T07:05:16.668Z,100762.63
2023-08-09T07:07:44.937Z,100799.78
2023-08-09T07:10:12.665Z,100852.97
2023-08-09T07:12:39.609Z,100809.09
2023-08-09T07:15:09.398Z,100775.06
2023-08-09T07:17:37.022Z,100788.78
2023-08-09T07:20:15.310Z,100831.03
2023-08-09T07:22:43.443Z,100785.34
2023-08-09T07:25:10.543Z,100746.72
2023-08-09T07:27:46.726Z,100881.91
2023-08-09T07:30:15.479Z,100774.78
2023-08-09T07:32:42.579Z,100868.63
2023-08-09T07:35:10.829Z,100835.13
2023-08-09T07:37:41.352Z,100867.28
2023-08-09T07:40:09.501Z,100889.47
2023-08-09T07:42:36.629Z,100887.50
2023-08-09T07:45:04.543Z,100840.16
2023-08-09T07:47:31.104Z,100871.59
2023-08-09T07:49:57.615Z,100889.47
2023-08-09T07:52:24.222Z,100897.91
2023-08-09T07:54:50.678Z,100875.28
2023-08-09T07:57:17.082Z,100874.41
2023-08-09T07:59:44.862Z,100797.88
2023-08-09T08:02:11.409Z,100896.72
2023-08-09T08:04:37.796Z,100897.81
2023-08-09T08:07:06.937Z,100873.94
2023-08-09T08:09:36.398Z,100846.13
2023-08-09T08:12:09.225Z,100897.84
2023-08-09T08:14:40.295Z,100767.69
2023-08-09T08:17:06.944Z,100896.38
2023-08-09T08:19:33.460Z,100766.44
2023-08-09T08:21:59.828Z,100802.16
2023-08-09T08:24:26.237Z,100896.13
2023-08-09T08:26:56.043Z,100833.09
2023-08-09T08:29:23.917Z,100880.97
2023-08-09T08:31:52.188Z,100922.78
2023-08-09T08:34:24.769Z,100915.91
2023-08-09T08:36:51.469Z,100903.75
2023-08-09T08:39:21.154Z,100915.13
2023-08-09T08:41:50.432Z,100867.88
2023-08-09T08:44:17.539Z,100906.66
2023-08-09T08:46:44.905Z,100903.91
2023-08-09T08:49:15.524Z,100936.31
2023-08-09T08:51:43.995Z,100943.84
2023-08-09T08:54:11.321Z,100924.66
2023-08-09T08:56:37.747Z,100929.50
2023-08-09T08:59:04.660Z,100944.38
2023-08-09T09:01:33.280Z,100864.91
2023-08-09T09:03:59.833Z,100913.88
2023-08-09T09:06:26.288Z,100952.69
2023-08-09T09:09:00.695Z,100945.41
2023-08-09T09:11:27.210Z,100870.22
2023-08-09T09:13:53.753Z,100913.19
2023-08-09T09:16:21.981Z,100923.97
2023-08-09T09:18:50.034Z,100959.19
2023-08-09T09:21:18.101Z,100933.84
2023-08-09T09:23:45.525Z,100947.44
2023-08-09T09:26:19.117Z,100946.25
2023-08-09T09:28:47.024Z,100912.59
2023-08-09T09:31:15.218Z,100965.41
2023-08-09T09:33:46.000Z,100952.56
2023-08-09T09:36:13.970Z,100933.00
2023-08-09T09:38:42.387Z,100918.50
2023-08-09T09:41:10.072Z,100960.53
2023-08-09T09:43:42.933Z,100951.69
2023-08-09T09:46:34.099Z,100960.06
2023-08-09T09:49:04.404Z,100945.03
2023-08-09T09:51:31.312Z,100937.28
2023-08-09T09:53:57.803Z,100916.34
2023-08-09T09:56:24.319Z,100929.22
2023-08-09T09:58:50.759Z,100937.09
2023-08-09T10:01:21.795Z,100990.22
2023-08-09T10:03:53.431Z,100918.91
2023-08-09T10:06:26.141Z,100957.72
2023-08-09T10:08:53.447Z,100963.88
2023-08-09T10:11:22.793Z,100974.34
2023-08-09T10:13:50.048Z,100912.72
2023-08-09T10:16:18.304Z,100959.25
2023-08-09T10:18:48.149Z,100992.03
2023-08-09T10:21:17.582Z,100960.03
2023-08-09T10:24:09.777Z,100986.16
2023-08-09T10:26:41.314Z,100983.84
2023-08-09T10:29:16.178Z,100965.03
2023-08-09T10:31:57.095Z,100969.28
2023-08-09T10:34:39.010Z,100936.69
2023-08-09T10:37:07.234Z,100900.63
2023-08-09T10:39:35.231Z,100943.69
2023-08-09T10:42:06.469Z,100953.34
2023-08-09T10:44:42.738Z,100977.22
2023-08-09T10:47:14.896Z,100966.94
2023-08-09T10:49:50.572Z,100982.06
2023-08-09T10:52:21.296Z,100943.91
2023-08-09T10:54:51.254Z,100986.53
2023-08-09T10:57:17.690Z,100933.72
2023-08-09T10:59:44.937Z,100953.34
2023-08-09T11:02:11.437Z,100979.59
2023-08-09T11:04:38.769Z,101000.06
2023-08-09T11:07:08.007Z,100914.50
2023-08-09T11:09:34.424Z,100994.53
2023-08-09T11:12:01.274Z,100975.69
2023-08-09T11:14:31.093Z,100974.31
2023-08-09T11:17:02.379Z,100989.94
2023-08-09T11:19:35.659Z,100974.69
2023-08-09T11:22:03.515Z,100970.16
2023-08-09T11:24:30.796Z,101005.03
2023-08-09T11:26:59.423Z,100958.72
2023-08-09T11:29:27.685Z,100979.06
2023-08-09T11:31:56.328Z,101003.25
2023-08-09T11:34:25.106Z,100945.56
2023-08-09T11:36:55.957Z,101012.66
2023-08-09T11:39:24.966Z,100934.28
2023-08-09T11:41:52.071Z,101008.44
2023-08-09T11:44:22.368Z,100974.47
2023-08-09T11:46:53.160Z,101008.16
2023-08-09T11:49:24.874Z,100983.66
2023-08-09T11:51:51.273Z,100992.88
2023-08-09T11:54:17.695Z,101016.25
2023-08-09T11:56:44.310Z,100998.78
2023-08-09T11:59:13.165Z,100984.81
2023-08-09T12:01:40.507Z,100998.34
2023-08-09T12:04:14.781Z,100973.94
2023-08-09T12:06:45.739Z,101005.84
2023-08-09T12:09:31.207Z,101024.78
2023-08-09T12:12:18.868Z,101017.84
2023-08-09T12:14:48.176Z,101002.31
2023-08-09T12:17:24.223Z,100999.88
2023-08-09T12:19:52.755Z,100993.59
2023-08-09T12:22:19.281Z,101000.00
2023-08-09T12:24:45.670Z,100984.00
2023-08-09T12:27:12.158Z,100946.53
2023-08-09T12:29:38.703Z,101009.28
2023-08-09T12:32:05.861Z,100969.75
2023-08-09T12:34:32.519Z,101005.22
2023-08-09T12:36:59.641Z,101002.13
2023-08-09T12:39:27.358Z,100994.13
2023-08-09T12:41:54.177Z,100999.97
2023-08-09T12:44:20.643Z,100961.91
2023-08-09T12:46:47.032Z,101003.66
2023-08-09T12:49:13.540Z,100995.28
2023-08-09T12:51:40.051Z,100990.56
2023-08-09T12:54:07.174Z,101035.59
2023-08-09T12:56:33.956Z,100988.88
2023-08-09T12:59:01.068Z,101009.78
2023-08-09T13:01:28.346Z,100955.88
2023-08-09T13:03:54.880Z,100991.34
2023-08-09T13:06:21.455Z,101000.81
2023-08-09T13:08:49.350Z,101034.63
2023-08-09T13:11:15.981Z,101015.63
2023-08-09T13:13:42.399Z,101010.47
2023-08-09T13:16:09.346Z,101029.91
2023-08-09T13:18:37.181Z,100944.38
2023-08-09T13:21:04.897Z,101023.72
2023-08-09T13:23:32.284Z,101008.94
2023-08-09T13:25:59.111Z,100932.31
2023-08-09T13:28:28.328Z,100945.25
2023-08-09T13:30:55.831Z,101035.50
2023-08-09T13:33:22.376Z,101027.78
2023-08-09T13:35:51.035Z,100941.06
2023-08-09T13:38:35.296Z,100941.47
2023-08-09T13:41:02.664Z,100932.16
2023-08-09T13:43:29.114Z,101017.69
2023-08-09T13:45:55.777Z,100927.13
2023-08-09T13:48:22.291Z,101024.34
2023-08-09T13:50:50.397Z,101035.59
2023-08-09T13:53:17.961Z,101037.84
2023-08-09T13:55:46.088Z,101017.38
2023-08-09T13:58:13.427Z,101005.84
2023-08-09T14:00:40.298Z,100936.03
2023-08-09T14:03:07.293Z,101022.44
2023-08-09T14:05:34.301Z,101012.34
2023-08-09T14:08:03.202Z,100950.75
2023-08-09T14:10:29.904Z,100934.59
2023-08-09T14:12:58.341Z,101034.25
2023-08-09T14:15:24.921Z,100940.81
2023-08-09T14:17:52.369Z,100905.81
2023-08-09T14:20:20.686Z,100923.81
2023-08-09T14:22:54.700Z,101014.03
2023-08-09T14:25:27.032Z,100948.00
2023-08-09T14:27:53.500Z,101005.16
2023-08-09T14:30:20.575Z,100940.31
2023-08-09T14:32:47.210Z,101023.59
2023-08-09T14:35:14.091Z,100961.88
2023-08-09T14:37:42.566Z,101043.81
2023-08-09T14:40:10.843Z,101036.50
2023-08-09T14:42:39.824Z,101022.72
2023-08-09T14:45:08.836Z,101024.53
2023-08-09T14:47:35.778Z,101013.00
2023-08-09T14:50:02.250Z,101017.94
2023-08-09T14:52:29.158Z,101048.47
2023-08-09T14:54:55.774Z,101049.69
2023-08-09T14:57:22.451Z,100949.72
2023-08-09T14:59:49.532Z,101046.97
2023-08-09T15:02:17.715Z,101050.75
2023-08-09T15:04:45.238Z,101014.28
2023-08-09T15:07:11.742Z,101033.31
2023-08-09T15:09:38.273Z,100962.38
2023-08-09T15:12:06.754Z,101039.00
2023-08-09T15:14:36.222Z,100990.66
2023-08-09T15:17:21.676Z,101045.88
2023-08-09T15:19:52.134Z,101032.75
2023-08-09T15:22:23.563Z,100972.63
2023-08-09T15:24:50.379Z,101003.06
2023-08-09T15:27:18.908Z,100982.41
2023-08-09T15:29:45.392Z,101021.13
2023-08-09T15:32:11.806Z,101046.50
2023-08-09T15:34:38.236Z,100964.38
2023-08-09T15:37:08.188Z,101025.38
2023-08-09T15:39:43.461Z,100956.78
2023-08-09T15:42:18.404Z,101057.91
2023-08-09T15:44:47.116Z,100998.91
2023-08-09T15:47:18.087Z,100951.03
2023-08-09T15:49:44.821Z,100954.00
2023-08-09T15:52:11.437Z,101049.31
2023-08-09T15:54:37.930Z,101024.88
2023-08-09T15:57:06.173Z,101000.44
2023-08-09T15:59:32.822Z,100970.69
2023-08-09T16:01:59.296Z,101045.03
2023-08-09T16:04:25.764Z,100949.38
2023-08-09T16:06:52.420Z,101022.53
2023-08-09T16:09:21.309Z,101053.19
2023-08-09T16:11:49.957Z,101076.78
2023-08-09T16:14:16.436Z,100930.63
2023-08-09T16:16:43.860Z,101063.16
2023-08-09T16:19:13.186Z,101025.44
2023-08-09T16:21:40.337Z,100964.09
2023-08-09T16:24:07.308Z,101050.09
2023-08-09T16:26:36.722Z,101080.38
2023-08-09T16:29:04.891Z,101054.59
2023-08-09T16:31:32.543Z,101035.06
2023-08-09T16:33:59.089Z,100925.56
2023-08-09T16:36:25.626Z,100991.88
2023-08-09T16:38:52.237Z,100982.00
2023-08-09T16:41:21.193Z,101006.41
2023-08-09T16:43:48.121Z,101078.50
2023-08-09T16:46:14.672Z,100994.97
2023-08-09T16:48:41.451Z,101036.09
2023-08-09T16:51:08.120Z,101080.41
2023-08-09T16:53:34.639Z,101069.31
2023-08-09T16:56:01.059Z,101013.91
2023-08-09T16:58:27.786Z,101098.66
2023-08-09T17:00:54.196Z,101032.72
2023-08-09T17:03:20.846Z,101080.22
2023-08-09T17:05:47.484Z,101061.59
2023-08-09T17:08:15.754Z,101114.31
2023-08-09T17:10:42.908Z,100997.16
2023-08-09T17:13:11.468Z,101112.19
2023-08-09T17:15:38.627Z,101114.97
2023-08-09T17:18:06.730Z,101113.34
2023-08-09T17:20:34.862Z,101099.56
2023-08-09T17:23:02.499Z,101025.22
2023-08-09T17:25:29.939Z,101092.81
2023-08-09T17:27:56.561Z,101097.59
2023-08-09T17:30:23.146Z,101055.50
2023-08-09T17:32:49.601Z,100980.66
2023-08-09T17:35:18.323Z,101034.59
2023-08-09T17:37:44.912Z,101088.78
2023-08-09T17:40:11.810Z,101007.38
2023-08-09T17:42:39.466Z,101109.31
2023-08-09T17:45:09.009Z,100977.72
2023-08-09T17:47:35.449Z,101082.34
2023-08-09T17:50:01.968Z,101113.56
2023-08-09T17:52:28.889Z,101131.50
2023-08-09T17:54:56.054Z,101128.81
2023-08-09T17:57:22.511Z,101058.22
2023-08-09T17:59:49.072Z,101078.31
2023-08-09T18:02:15.483Z,101117.28
2023-08-09T18:04:42.014Z,101100.72
2023-08-09T18:07:08.442Z,101157.63
2023-08-09T18:09:34.981Z,101137.25
2023-08-09T18:12:01.578Z,101093.19
2023-08-09T18:14:32.033Z,101163.13
2023-08-09T18:16:58.782Z,101086.72
2023-08-09T18:19:25.204Z,101054.44
2023-08-09T18:21:51.590Z,101063.19
2023-08-09T18:24:17.983Z,101119.31
2023-08-09T18:26:44.449Z,101095.88
2023-08-09T18:29:11.258Z,101112.13
2023-08-09T18:31:37.748Z,101096.75
2023-08-09T18:34:04.430Z,101159.69
2023-08-09T18:36:30.909Z,101169.63
2023-08-09T18:38:57.286Z,101148.84
2023-08-09T18:41:23.740Z,101092.63
2023-08-09T18:43:51.134Z,101166.56
2023-08-09T18:46:17.603Z,101088.00
2023-08-09T18:48:44.023Z,101161.41
2023-08-09T18:51:10.408Z,101172.84
2023-08-09T18:53:36.928Z,101153.31
2023-08-09T18:56:03.448Z,101166.19
2023-08-09T18:58:29.814Z,101122.72
2023-08-09T19:00:57.318Z,101179.72
2023-08-09T19:03:23.800Z,101205.81
2023-08-09T19:05:50.224Z,101119.31
2023-08-09T19:08:16.804Z,101173.50
2023-08-09T19:10:43.210Z,101115.97
2023-08-09T19:13:09.683Z,101185.34
2023-08-09T19:15:38.891Z,101218.38
2023-08-09T19:18:08.971Z,101121.59
2023-08-09T19:20:35.479Z,101196.72
2023-08-09T19:23:02.198Z,101124.50
2023-08-09T19:25:30.097Z,101191.50
2023-08-09T19:27:56.631Z,101165.66
2023-08-09T19:30:23.063Z,101153.72
2023-08-09T19:32:50.661Z,101195.47
2023-08-09T19:35:17.796Z,101231.44
2023-08-09T19:37:44.655Z,101216.78
2023-08-09T19:40:11.852Z,101233.25
2023-08-09T19:42:39.195Z,101229.19
2023-08-09T19:45:06.105Z,101240.25
2023-08-09T19:47:32.973Z,101255.72
2023-08-09T19:49:59.613Z,101244.03
2023-08-09T19:52:26.177Z,101255.97
2023-08-09T19:54:52.788Z,101162.50
2023-08-09T19:57:19.250Z,101187.91
2023-08-09T19:59:45.771Z,101187.41
2023-08-09T20:02:12.255Z,101149.88
2023-08-09T20:04:39.163Z,101249.63
2023-08-09T20:07:05.964Z,101267.41
2023-08-09T20:09:33.045Z,101257.00
2023-08-09T20:11:59.736Z,101264.34
2023-08-09T20:14:26.117Z,101264.19
2023-08-09T20:16:52.588Z,101242.38
2023-08-09T20:19:19.494Z,101264.88
2023-08-09T20:21:45.953Z,101266.78
2023-08-09T20:24:33.255Z,101270.88
2023-08-09T20:26:59.792Z,101253.06
2023-08-09T20:29:26.161Z,101247.50
2023-08-09T20:31:52.629Z,101247.81
2023-08-09T20:34:19.135Z,101192.38
2023-08-09T20:36:45.621Z,101265.91
2023-08-09T20:39:12.036Z,101260.09
2023-08-09T20:41:38.476Z,101246.75
2023-08-09T20:44:05.773Z,101253.22
2023-08-09T20:46:32.259Z,101274.28
2023-08-09T20:48:58.690Z,101264.59
2023-08-09T20:51:25.088Z,101232.47
2023-08-09T20:53:51.579Z,101233.31
2023-08-09T20:56:18.742Z,101266.63
2023-08-09T20:58:45.989Z,101258.81
2023-08-09T21:01:13.857Z,101268.63
2023-08-09T21:03:40.498Z,101287.09
2023-08-09T21:06:07.260Z,101283.25
2023-08-09T21:08:33.717Z,101263.88
2023-08-09T21:11:00.302Z,101267.25
2023-08-09T21:13:26.731Z,101259.75
2023-08-09T21:15:53.147Z,101219.81
2023-08-09T21:18:19.792Z,101295.78
2023-08-09T21:20:46.420Z,101308.81
2023-08-09T21:23:12.872Z,101236.09
2023-08-09T21:28:11.782Z,101306.59
2023-08-09T21:30:39.261Z,101271.25
2023-08-09T21:33:08.877Z,101216.72
2023-08-09T21:35:35.449Z,101214.41
2023-08-09T21:38:02.021Z,101298.53
2023-08-09T21:40:28.588Z,101295.09
2023-08-09T21:42:55.045Z,101277.16
2023-08-09T21:45:21.473Z,101273.81
2023-08-09T21:47:47.919Z,101276.00
2023-08-09T21:50:14.449Z,101280.47
2023-08-09T21:52:40.876Z,101282.50
2023-08-09T21:55:07.583Z,101282.88
2023-08-09T21:57:33.984Z,101316.66
2023-08-09T22:00:00.390Z,101260.66
2023-08-09T22:02:26.859Z,101258.59
2023-08-09T22:04:54.073Z,101314.28
2023-08-09T22:07:20.544Z,101300.47
2023-08-09T22:09:46.999Z,101271.38
2023-08-09T22:12:13.444Z,101318.16
2023-08-09T22:14:39.960Z,101253.34
2023-08-09T22:17:06.560Z,101232.38
2023-08-09T22:19:32.948Z,101251.28
2023-08-09T22:24:31.483Z,101233.13
2023-08-09T22:26:58.914Z,101297.38
2023-08-09T22:29:25.291Z,101274.94
2023-08-09T22:31:52.838Z,101318.41
2023-08-09T22:34:22.965Z,101331.25
2023-08-09T22:36:49.413Z,101274.78
2023-08-09T22:39:15.792Z,101305.13
2023-08-09T22:41:42.192Z,101294.53
2023-08-09T22:44:08.617Z,101314.25
2023-08-09T22:46:35.078Z,101316.91
2023-08-09T22:49:01.457Z,101301.59
2023-08-09T22:51:27.958Z,101282.16
2023-08-09T22:53:54.637Z,101216.28
2023-08-09T22:56:21.067Z,101321.53
2023-08-09T22:58:47.562Z,101337.81
2023-08-09T23:01:14.056Z,101259.50
2023-08-09T23:03:40.505Z,101342.38
2023-08-09T23:06:07.658Z,101332.56
2023-08-09T23:08:34.748Z,101349.03
2023-08-09T23:11:06.157Z,101342.19
2023-08-09T23:13:32.671Z,101337.03
2023-08-09T23:15:59.270Z,101325.22
2023-08-09T23:18:25.719Z,101344.72
2023-08-09T23:20:52.677Z,101349.50
2023-08-09T23:23:19.080Z,101355.84
2023-08-09T23:25:45.526Z,101329.69
2023-08-09T23:28:11.901Z,101359.19
2023-08-09T23:30:38.500Z,101368.97
2023-08-09T23:33:06.279Z,101259.25
2023-08-09T23:35:33.511Z,101346.56
2023-08-09T23:38:00.401Z,101363.09
2023-08-09T23:40:27.300Z,101341.34
2023-08-09T23:42:53.764Z,101355.81
2023-08-09T23:45:20.336Z,101343.66
2023-08-09T23:47:46.887Z,101359.88
2023-08-09T23:50:13.340Z,101334.13
2023-08-09T23:52:39.894Z,101359.50
2023-08-09T23:55:07.094Z,101338.06
2023-08-09T23:57:33.688Z,101366.84
